| time (UTC) | temp C | wind direction | speed KPH | gust KPH | rain 1hr cm | rain 24hr cm | rain mn cm | humidity % | barometer mb |
| 20260905213006 | 30 | 188 | 3.2 | 8.0 | 0.00 | 0.25 | 0.00 | 48 | 1010.4 |
| 20260905211529 | 30 | 236 | 3.2 | 8.0 | 0.00 | 0.25 | 0.00 | 48 | 1010.4 |
| 20260905210019 | 29 | 239 | 1.6 | 8.0 | 0.00 | 0.25 | 0.00 | 48 | 1010.1 |
| 20260905204507 | 30 | 243 | 1.6 | 8.0 | 0.00 | 0.25 | 0.00 | 49 | 1010.5 |
| 20260905203018 | 29 | 233 | 4.8 | 8.0 | 0.00 | 0.25 | 0.00 | 50 | 1010.4 |
| 20260905201514 | 30 | 215 | 4.8 | 11.3 | 0.00 | 0.25 | 0.00 | 48 | 1010.2 |
| 20260905200009 | 29 | 202 | 3.2 | 12.9 | 0.00 | 0.25 | 0.00 | 50 | 1010.1 |
| 20260905194518 | 29 | 159 | 6.4 | 11.3 | 0.00 | 0.25 | 0.00 | 49 | 1010.1 |
| 20260905193025 | 28 | 126 | 3.2 | 9.7 | 0.00 | 0.25 | 0.00 | 54 | 1010.1 |
| 20260905191520 | 28 | 111 | 3.2 | 9.7 | 0.00 | 0.25 | 0.00 | 52 | 1009.9 |
| 20260905190026 | 27 | 120 | 4.8 | 11.3 | 0.00 | 0.25 | 0.00 | 53 | 1009.5 |
| 20260905184514 | 26 | 86 | 0.0 | 4.8 | 0.00 | 0.25 | 0.00 | 56 | 1010.0 |
| 20260905183031 | 26 | 157 | 4.8 | 8.0 | 0.00 | 0.25 | 0.00 | 58 | 1010.3 |
| 20260905181503 | 26 | 213 | 0.0 | 8.0 | 0.00 | 0.25 | 0.00 | 55 | 1010.7 |
| 20260905180006 | 27 | 186 | 4.8 | 12.9 | 0.00 | 0.25 | 0.00 | 53 | 1011.6 |
| 20260905174504 | 28 | 290 | 4.8 | 16.1 | 0.00 | 0.25 | 0.00 | 50 | 1011.6 |
| 20260905173004 | 29 | 309 | 4.8 | 12.9 | 0.00 | 0.25 | 0.00 | 51 | 1012.0 |
| 20260905171503 | 30 | 314 | 6.4 | 19.3 | 0.00 | 0.25 | 0.00 | 49 | 1012.2 |
| 20260905170006 | 31 | 46 | 11.3 | 22.5 | 0.00 | 0.25 | 0.00 | 48 | 1012.2 |
| 20260905164508 | 31 | 30 | 6.4 | 16.1 | 0.00 | 0.25 | 0.00 | 45 | 1012.3 |
| 20260905163004 | 32 | 273 | 8.0 | 16.1 | 0.00 | 0.25 | 0.00 | 42 | 1012.1 |
| 20260905161503 | 32 | 340 | 8.0 | 20.9 | 0.00 | 0.25 | 0.00 | 42 | 1012.3 |
| 20260905160003 | 32 | 341 | 8.0 | 19.3 | 0.00 | 0.25 | 0.00 | 43 | 1012.5 |
| 20260905154505 | 32 | 333 | 1.6 | 12.9 | 0.00 | 0.25 | 0.00 | 46 | 1012.4 |
| 20260905153012 | 31 | 57 | 3.2 | 8.0 | 0.00 | 0.25 | 0.00 | 48 | 1012.7 |
| 20260905151513 | 31 | 68 | 1.6 | 4.8 | 0.00 | 0.25 | 0.00 | 52 | 1012.7 |
| 20260905150010 | 30 | 68 | 1.6 | 6.4 | 0.00 | 0.25 | 0.00 | 53 | 1012.7 |
| 20260905144505 | 30 | 70 | 4.8 | 9.7 | 0.00 | 0.25 | 0.00 | 54 | 1012.7 |
| 20260905143005 | 30 | 101 | 4.8 | 11.3 | 0.00 | 0.25 | 0.00 | 56 | 1012.8 |
| 20260905141524 | 28 | 173 | 3.2 | 9.7 | 0.00 | 0.25 | 0.00 | 57 | 1012.6 |
| 20260905140018 | 28 | 175 | 1.6 | 6.4 | 0.00 | 0.25 | 0.00 | 59 | 1012.4 |
| 20260905134509 | 27 | 175 | 3.2 | 6.4 | 0.00 | 0.25 | 0.00 | 61 | 1012.3 |
| 20260905133006 | 26 | 197 | 0.0 | 4.8 | 0.00 | 0.25 | 0.00 | 65 | 1012.4 |
| 20260905131509 | 25 | 197 | 0.0 | 3.2 | 0.00 | 0.25 | 0.00 | 68 | 1012.3 |
| 20260905130012 | 24 | 197 | 1.6 | 3.2 | 0.00 | 0.25 | 0.00 | 70 | 1012.4 |
| 20260905124535 | 23 | 85 | 0.0 | 3.2 | 0.00 | 0.25 | 0.00 | 72 | 1012.5 |
| 20260905123007 | 22 | 14 | 0.0 | 3.2 | 0.00 | 0.25 | 0.00 | 73 | 1012.5 |
| 20260905121506 | 21 | 14 | 0.0 | 3.2 | 0.00 | 0.25 | 0.00 | 74 | 1012.5 |
| 20260905120012 | 20 | 24 | 0.0 | 0.0 | 0.00 | 0.25 | 0.00 | 74 | 1012.3 |
| 20260905114510 | 20 | 24 | 0.0 | 3.2 | 0.00 | 0.25 | 0.00 | 73 | 1012.0 |
| 20260905113024 | 20 | 24 | 0.0 | 8.0 | 0.00 | 0.25 | 0.00 | 74 | 1012.0 |
| 20260905111527 | 20 | 25 | 0.0 | 4.8 | 0.00 | 0.25 | 0.00 | 74 | 1012.1 |